Terminal Aerodrome Forecast
Issued by NWS Pocatello, ID

Home | Current Version | Previous Version | Text Only | Print | Product List | Glossary On
Versions: 1 2 3 4 5 6 7 8 9 10 11 12 13 14 15 16 17 18 19 20 21 22
939
FTUS45 KPIH 201140
TAFBYI
TAF
KBYI 201140Z 2012/2112 22011KT P6SM SCT040 OVC080
     FM201500 25015G25KT P6SM VCSH SCT040 OVC060
     FM210100 25012KT P6SM -RA BKN020 OVC040=

USA.gov is the U.S. government's official web portal to all federal, state and local government web resources and services.